Time;durP1;ratioP1;P1;durP2;ratioP2;P2;SDS_P1;SDS_P2;PMS_P1;PMS_P2;Temp;Humidity;BMP_temperature;BMP_pressure;BME280_temperature;BME280_humidity;BME280_pressure;Samples;Min_cycle;Max_cycle;Signal;HPM_P1;HPM_P2
2022/04/10 00:01:56;;;;;;;6.43;1.10;;;;;;;;;;4976287;28;20091;-78
2022/04/10 00:04:23;;;;;;;10.68;1.15;;;;;;;;;;4976005;28;20027;-78
2022/04/10 00:06:48;;;;;;;2.30;0.88;;;;;;;;;;4974870;28;20529;-78
2022/04/10 00:09:13;;;;;;;1.92;0.93;;;;;;;;;;4975919;28;20054;-79
2022/04/10 00:11:39;;;;;;;8.20;1.15;;;;;;;;;;4975969;28;20466;-78
2022/04/10 00:14:04;;;;;;;2.25;0.90;;;;;;;;;;4976155;28;20486;-78
2022/04/10 00:16:29;;;;;;;1.75;0.80;;;;;;;;;;4974838;28;20019;-77
2022/04/10 00:18:54;;;;;;;6.20;1.75;;;;;;;;;;4975887;28;20085;-79
2022/04/10 00:21:20;;;;;;;3.90;1.02;;;;;;;;;;4975193;28;20019;-78
2022/04/10 00:23:45;;;;;;;4.65;0.80;;;;;;;;;;4976398;28;20027;-79
2022/04/10 00:26:12;;;;;;;3.33;1.27;;;;;;;;;;4976290;28;20019;-78
2022/04/10 00:28:37;;;;;;;5.93;1.67;;;;;;;;;;4977011;28;20019;-78
2022/04/10 00:31:02;;;;;;;4.38;1.20;;;;;;;;;;4975339;28;20027;-78
2022/04/10 00:33:27;;;;;;;4.22;1.13;;;;;;;;;;4975793;28;20471;-78
2022/04/10 00:35:53;;;;;;;6.45;2.20;;;;;;;;;;4975641;28;20114;-78
2022/04/10 00:38:20;;;;;;;6.35;1.27;;;;;;;;;;4975034;28;20027;-77
2022/04/10 00:40:45;;;;;;;2.58;1.02;;;;;;;;;;4977255;28;20022;-78
2022/04/10 00:43:10;;;;;;;5.18;1.27;;;;;;;;;;4977307;28;20019;-79
2022/04/10 00:45:36;;;;;;;5.07;1.50;;;;;;;;;;4975448;28;20034;-79
2022/04/10 00:48:01;;;;;;;9.02;1.30;;;;;;;;;;4977583;28;20111;-79
2022/04/10 00:50:26;;;;;;;4.57;1.55;;;;;;;;;;4977825;28;20022;-79
2022/04/10 00:52:51;;;;;;;5.80;1.23;;;;;;;;;;4977828;28;20098;-79
2022/04/10 00:55:17;;;;;;;2.53;1.00;;;;;;;;;;4977582;28;20497;-80
2022/04/10 00:57:46;;;;;;;2.75;1.00;;;;;;;;;;4977748;28;20025;-79
2022/04/10 01:00:12;;;;;;;4.43;1.13;;;;;;;;;;4977796;28;20019;-79
2022/04/10 01:02:38;;;;;;;6.80;1.45;;;;;;;;;;4976724;28;20061;-78
2022/04/10 01:05:04;;;;;;;4.00;1.17;;;;;;;;;;4977083;28;20057;-77
2022/04/10 01:07:29;;;;;;;4.18;1.02;;;;;;;;;;4976933;28;20054;-78
2022/04/10 01:09:55;;;;;;;3.50;1.27;;;;;;;;;;4977803;28;20023;-79
2022/04/10 01:12:21;;;;;;;4.88;1.42;;;;;;;;;;4978996;28;20077;-79
2022/04/10 01:14:47;;;;;;;4.28;1.15;;;;;;;;;;4978842;28;20654;-79
2022/04/10 01:17:12;;;;;;;6.50;1.48;;;;;;;;;;4977420;28;20030;-78
2022/04/10 01:19:38;;;;;;;4.55;1.52;;;;;;;;;;4978510;28;20018;-78
2022/04/10 01:22:04;;;;;;;3.67;1.48;;;;;;;;;;4978642;28;20026;-78
2022/04/10 01:24:29;;;;;;;6.15;1.40;;;;;;;;;;4978460;28;20029;-79
2022/04/10 01:26:54;;;;;;;4.50;1.60;;;;;;;;;;4978403;28;20030;-78
2022/04/10 01:29:20;;;;;;;5.63;1.70;;;;;;;;;;4977376;28;20030;-78
2022/04/10 01:31:46;;;;;;;4.40;1.92;;;;;;;;;;4977827;28;20023;-79
2022/04/10 01:34:15;;;;;;;7.53;1.70;;;;;;;;;;4977845;28;20079;-79
2022/04/10 01:36:41;;;;;;;5.57;1.52;;;;;;;;;;4980777;28;20031;-78
2022/04/10 01:39:07;;;;;;;4.15;1.52;;;;;;;;;;4980450;28;20445;-79
2022/04/10 01:41:34;;;;;;;4.70;1.52;;;;;;;;;;4981840;28;20051;-79
2022/04/10 01:44:00;;;;;;;8.80;1.60;;;;;;;;;;4979898;28;20026;-79
2022/04/10 01:46:26;;;;;;;6.35;1.70;;;;;;;;;;4980122;28;20033;-79
2022/04/10 01:48:51;;;;;;;6.75;1.30;;;;;;;;;;4980607;28;20046;-78
2022/04/10 01:51:16;;;;;;;6.60;1.27;;;;;;;;;;4981280;28;20122;-79
2022/04/10 01:53:42;;;;;;;6.28;1.55;;;;;;;;;;4979234;28;20019;-78
2022/04/10 01:56:08;;;;;;;6.28;1.30;;;;;;;;;;4978333;28;20023;-79
2022/04/10 01:58:34;;;;;;;5.35;1.30;;;;;;;;;;4980399;28;20015;-78
2022/04/10 02:01:06;;;;;;;9.02;1.73;;;;;;;;;;4979592;28;20034;-78
2022/04/10 02:03:32;;;;;;;10.65;1.40;;;;;;;;;;4979028;28;20447;-78
2022/04/10 02:05:57;;;;;;;6.00;1.40;;;;;;;;;;4979225;28;20069;-79
2022/04/10 02:08:23;;;;;;;7.47;1.67;;;;;;;;;;4980803;28;20018;-79
2022/04/10 02:10:49;;;;;;;5.75;1.20;;;;;;;;;;4978688;28;20054;-78
2022/04/10 02:13:14;;;;;;;12.52;1.77;;;;;;;;;;4981571;28;20509;-79
2022/04/10 02:15:39;;;;;;;6.93;1.80;;;;;;;;;;4980761;28;20026;-77
2022/04/10 02:18:05;;;;;;;6.40;1.45;;;;;;;;;;4980083;28;20185;-80
2022/04/10 02:20:30;;;;;;;5.15;1.17;;;;;;;;;;4979401;28;20027;-79
2022/04/10 02:22:55;;;;;;;4.80;1.45;;;;;;;;;;4980677;28;20030;-79
2022/04/10 02:25:21;;;;;;;7.45;1.65;;;;;;;;;;4979887;28;20447;-79
2022/04/10 02:27:46;;;;;;;6.95;1.50;;;;;;;;;;4980100;28;20026;-78
2022/04/10 02:30:12;;;;;;;7.85;1.67;;;;;;;;;;4979242;28;20019;-79
2022/04/10 02:32:38;;;;;;;4.38;1.20;;;;;;;;;;4981265;28;20023;-79
2022/04/10 02:35:03;;;;;;;5.55;1.40;;;;;;;;;;4981175;28;20037;-79
2022/04/10 02:37:29;;;;;;;9.48;1.85;;;;;;;;;;4980908;28;20027;-79
2022/04/10 02:39:54;;;;;;;5.00;1.35;;;;;;;;;;4981373;28;20049;-79
2022/04/10 02:42:19;;;;;;;4.72;1.40;;;;;;;;;;4981262;28;20374;-80
2022/04/10 02:44:45;;;;;;;6.18;1.27;;;;;;;;;;4979099;28;20477;-80
2022/04/10 02:47:10;;;;;;;6.55;1.23;;;;;;;;;;4979914;28;20018;-79
2022/04/10 02:49:36;;;;;;;7.05;1.90;;;;;;;;;;4979985;28;20089;-80
2022/04/10 02:52:01;;;;;;;6.50;1.52;;;;;;;;;;4981421;28;20042;-78
2022/04/10 02:54:26;;;;;;;6.03;1.50;;;;;;;;;;4979915;28;20114;-79
2022/04/10 02:56:51;;;;;;;9.45;1.48;;;;;;;;;;4981197;28;20027;-79
2022/04/10 02:59:16;;;;;;;7.88;1.30;;;;;;;;;;4980896;28;20086;-78
2022/04/10 03:01:42;;;;;;;6.13;1.33;;;;;;;;;;4981107;28;20019;-79
2022/04/10 03:04:07;;;;;;;7.10;1.58;;;;;;;;;;4980521;28;20022;-79
2022/04/10 03:06:32;;;;;;;8.43;1.85;;;;;;;;;;4981485;28;20015;-80
2022/04/10 03:08:58;;;;;;;4.45;1.67;;;;;;;;;;4979732;28;20430;-79
2022/04/10 03:11:25;;;;;;;4.50;1.63;;;;;;;;;;4979659;28;20486;-78
2022/04/10 03:13:50;;;;;;;9.80;1.70;;;;;;;;;;4979367;28;20022;-80
2022/04/10 03:16:15;;;;;;;6.97;1.80;;;;;;;;;;4978945;28;20027;-80
2022/04/10 03:18:40;;;;;;;5.75;1.48;;;;;;;;;;4979224;28;20019;-79
2022/04/10 03:21:06;;;;;;;5.57;1.70;;;;;;;;;;4979036;28;20027;-79
2022/04/10 03:23:31;;;;;;;8.52;1.70;;;;;;;;;;4978023;28;20025;-78
2022/04/10 03:25:56;;;;;;;8.68;1.92;;;;;;;;;;4977172;28;20107;-79
2022/04/10 03:28:22;;;;;;;5.07;1.67;;;;;;;;;;4978948;28;20078;-79
2022/04/10 03:30:47;;;;;;;7.32;1.77;;;;;;;;;;4978315;28;20026;-79
2022/04/10 03:33:12;;;;;;;3.88;1.63;;;;;;;;;;4977434;28;20026;-79
2022/04/10 03:35:38;;;;;;;8.43;1.90;;;;;;;;;;4977157;28;20478;-79
2022/04/10 03:38:03;;;;;;;5.82;1.58;;;;;;;;;;4975612;28;20033;-78
2022/04/10 03:40:28;;;;;;;5.18;1.55;;;;;;;;;;4976350;28;20019;-79
2022/04/10 03:42:53;;;;;;;6.28;1.65;;;;;;;;;;4976800;28;20025;-78
2022/04/10 03:45:19;;;;;;;8.60;1.80;;;;;;;;;;4975969;28;20018;-79
2022/04/10 03:47:46;;;;;;;3.45;1.50;;;;;;;;;;4979481;28;20048;-80
2022/04/10 03:50:11;;;;;;;5.32;1.60;;;;;;;;;;4980326;28;20098;-80
2022/04/10 03:52:36;;;;;;;6.45;1.98;;;;;;;;;;4978917;28;20077;-79
2022/04/10 03:55:02;;;;;;;10.30;1.73;;;;;;;;;;4976482;28;20049;-79
2022/04/10 03:57:30;;;;;;;6.95;1.88;;;;;;;;;;4976874;28;20030;-78
2022/04/10 03:59:56;;;;;;;9.05;1.65;;;;;;;;;;4975815;28;20053;-79
2022/04/10 04:02:22;;;;;;;4.47;1.75;;;;;;;;;;4977244;28;20026;-78
2022/04/10 04:04:50;;;;;;;3.72;1.52;;;;;;;;;;4977405;28;20019;-78
2022/04/10 04:07:15;;;;;;;5.40;1.55;;;;;;;;;;4977578;28;20057;-80
2022/04/10 04:09:41;;;;;;;7.88;2.58;;;;;;;;;;4976278;28;20122;-80
2022/04/10 04:12:07;;;;;;;6.07;1.80;;;;;;;;;;4978018;28;20089;-79
2022/04/10 04:14:32;;;;;;;10.98;2.40;;;;;;;;;;4977175;28;20050;-79
2022/04/10 04:16:57;;;;;;;6.72;2.13;;;;;;;;;;4977610;28;20027;-78
2022/04/10 04:19:22;;;;;;;6.40;1.85;;;;;;;;;;4979297;28;20026;-79
2022/04/10 04:21:47;;;;;;;5.57;2.00;;;;;;;;;;4979885;28;20078;-80
2022/04/10 04:24:13;;;;;;;8.30;1.88;;;;;;;;;;4978276;28;20014;-79
2022/04/10 04:26:38;;;;;;;7.28;2.25;;;;;;;;;;4978458;28;20023;-79
2022/04/10 04:29:03;;;;;;;6.40;2.22;;;;;;;;;;4976812;28;20027;-79
2022/04/10 04:31:28;;;;;;;12.27;2.78;;;;;;;;;;4978587;28;20019;-79
2022/04/10 04:33:53;;;;;;;9.73;2.10;;;;;;;;;;4978688;28;20030;-79
2022/04/10 04:36:19;;;;;;;3.85;1.90;;;;;;;;;;4980316;28;20011;-79
2022/04/10 04:38:44;;;;;;;7.20;1.95;;;;;;;;;;4979199;28;20018;-80
2022/04/10 04:41:10;;;;;;;6.78;2.08;;;;;;;;;;4977944;28;20019;-79
2022/04/10 05:15:13;;;;;;;5.20;1.98;;;;;;;;;;4974360;28;20069;-84
2022/04/10 05:17:51;;;;;;;4.47;2.40;;;;;;;;;;4980541;29;20027;-85
2022/04/10 05:20:28;;;;;;;8.00;2.20;;;;;;;;;;4980391;28;20095;-85
2022/04/10 05:22:56;;;;;;;9.13;2.53;;;;;;;;;;4981670;28;20042;-85
2022/04/10 05:25:37;;;;;;;;;;;;;;;;;;;;;
2022/04/10 05:28:13;;;;;;;6.25;2.35;;;;;;;;;;4979670;28;20059;-85
2022/04/10 05:30:53;;;;;;;5.22;1.67;;;;;;;;;;4977751;29;20027;-85
2022/04/10 05:33:43;;;;;;;5.47;1.90;;;;;;;;;;4980435;28;20027;-85
2022/04/10 05:36:34;;;;;;;5.78;1.88;;;;;;;;;;4980558;29;20558;-85
2022/04/10 05:42:06;;;;;;;9.05;2.08;;;;;;;;;;4983231;28;20104;-85
2022/04/10 05:44:40;;;;;;;5.43;1.67;;;;;;;;;;4982032;28;20098;-86
2022/04/10 05:47:23;;;;;;;7.65;1.83;;;;;;;;;;4982106;28;20007;-85
2022/04/10 05:50:06;;;;;;;;;;;;;;;;;;;;;
2022/04/10 05:52:53;;;;;;;5.93;2.35;;;;;;;;;;4976702;28;20019;-85
2022/04/10 05:55:51;;;;;;;9.77;2.25;;;;;;;;;;4981763;28;20031;-85
2022/04/10 07:00:53;;;;;;;7.70;1.95;;;;;;;;;;5930554;23;20039;-84
2022/04/10 08:46:45;;;;;;;7.95;2.20;;;;;;;;;;5765332;23;20059;-84
2022/04/10 08:51:53;;;;;;;12.50;1.80;;;;;;;;;;5768367;23;20038;-85
2022/04/10 08:54:21;;;;;;;8.67;1.80;;;;;;;;;;5445704;23;20013;-80
2022/04/10 09:01:59;;;;;;;12.40;1.77;;;;;;;;;;5691468;23;20050;-84
2022/04/10 09:14:45;;;;;;;7.80;1.75;;;;;;;;;;5590935;23;20058;-83
2022/04/10 09:17:43;;;;;;;11.65;1.95;;;;;;;;;;4997099;28;20118;-83
2022/04/10 09:20:16;;;;;;;8.90;1.90;;;;;;;;;;4990429;28;20042;-83
2022/04/10 09:38:51;;;;;;;;;;;;;;;;;;;;;
2022/04/10 09:46:30;;;;;;;8.55;1.85;;;;;;;;;;5352874;23;20205;-83
2022/04/10 09:49:17;;;;;;;8.40;1.80;;;;;;;;;;4997285;28;20104;-85
2022/04/10 09:52:20;;;;;;;6.65;1.90;;;;;;;;;;4996555;28;20046;-84
2022/04/10 09:54:51;;;;;;;6.40;1.70;;;;;;;;;;4997162;28;20057;-84
2022/04/10 09:57:22;;;;;;;10.45;1.95;;;;;;;;;;5000066;28;20027;-84
2022/04/10 09:59:51;;;;;;;7.75;1.75;;;;;;;;;;5000806;28;20027;-84
2022/04/10 10:23:28;;;;;;;5.95;1.63;;;;;;;;;;5372129;23;20058;-84
2022/04/10 10:29:10;;;;;;;9.40;1.80;;;;;;;;;;5014595;23;20058;-83
2022/04/10 10:31:44;;;;;;;11.30;2.50;;;;;;;;;;4942419;28;20030;-84
2022/04/10 10:39:38;;;;;;;3.90;0.95;;;;;;;;;;5833281;23;20038;-83
2022/04/10 10:44:39;;;;;;;8.40;2.35;;;;;;;;;;5540015;23;20038;-83
2022/04/10 10:47:07;;;;;;;5.03;1.52;;;;;;;;;;4995904;28;20087;-83
2022/04/10 10:49:45;;;;;;;4.43;1.40;;;;;;;;;;4994945;28;20027;-83
2022/04/10 10:52:13;;;;;;;14.15;2.40;;;;;;;;;;4996390;28;20027;-83
2022/04/10 10:54:58;;;;;;;9.52;1.65;;;;;;;;;;4993387;28;20074;-83
2022/04/10 10:57:29;;;;;;;7.40;1.30;;;;;;;;;;4994908;28;20022;-82
2022/04/10 11:00:05;;;;;;;7.82;1.45;;;;;;;;;;4991997;28;20470;-83
2022/04/10 11:02:38;;;;;;;5.25;1.40;;;;;;;;;;4987107;28;20022;-82
2022/04/10 11:05:07;;;;;;;5.00;2.03;;;;;;;;;;4990398;28;20023;-83
2022/04/10 11:07:39;;;;;;;5.70;1.40;;;;;;;;;;4989965;28;20045;-82
2022/04/10 11:10:09;;;;;;;5.57;1.60;;;;;;;;;;4989242;28;20026;-82
2022/04/10 11:12:36;;;;;;;5.53;1.20;;;;;;;;;;4992221;28;20034;-82
2022/04/10 11:15:19;;;;;;;7.32;1.58;;;;;;;;;;4994139;28;20034;-82
2022/04/10 11:17:45;;;;;;;6.78;1.90;;;;;;;;;;4994388;28;20050;-83
2022/04/10 11:20:12;;;;;;;6.68;1.75;;;;;;;;;;4992867;28;20022;-81
2022/04/10 11:22:46;;;;;;;8.55;1.73;;;;;;;;;;4992111;28;20026;-83
2022/04/10 11:25:11;;;;;;;6.85;2.42;;;;;;;;;;4992350;28;20015;-83
2022/04/10 11:27:45;;;;;;;3.08;1.00;;;;;;;;;;4988944;28;20094;-82
2022/04/10 11:30:23;;;;;;;4.82;1.23;;;;;;;;;;4987400;28;20027;-81
2022/04/10 11:32:53;;;;;;;8.73;1.58;;;;;;;;;;4989456;28;20019;-83
2022/04/10 11:35:37;;;;;;;6.80;1.40;;;;;;;;;;4989719;28;20287;-83
2022/04/10 11:38:05;;;;;;;3.33;1.17;;;;;;;;;;4991034;28;20022;-82
2022/04/10 11:40:41;;;;;;;5.28;1.00;;;;;;;;;;4990975;28;20022;-83
2022/04/10 11:43:08;;;;;;;4.10;1.40;;;;;;;;;;4992660;28;20057;-83
2022/04/10 11:45:39;;;;;;;6.03;1.50;;;;;;;;;;4994090;28;20055;-82
2022/04/10 11:48:09;;;;;;;5.65;1.45;;;;;;;;;;4990609;28;20019;-83
2022/04/10 11:50:45;;;;;;;5.28;1.20;;;;;;;;;;4990984;28;20030;-83
2022/04/10 11:53:12;;;;;;;4.47;1.33;;;;;;;;;;4992496;28;20022;-82
2022/04/10 11:55:40;;;;;;;6.18;1.40;;;;;;;;;;4991213;28;20029;-82
2022/04/10 11:58:16;;;;;;;5.38;1.55;;;;;;;;;;4991818;28;20027;-82
2022/04/10 12:00:55;;;;;;;3.60;1.30;;;;;;;;;;4989992;28;20035;-81
2022/04/10 12:03:21;;;;;;;5.75;1.10;;;;;;;;;;4990468;28;20039;-82
2022/04/10 12:05:53;;;;;;;6.30;1.30;;;;;;;;;;4988897;28;20037;-81
2022/04/10 12:08:38;;;;;;;3.33;0.98;;;;;;;;;;4987960;28;20215;-83
2022/04/10 12:11:04;;;;;;;3.13;0.93;;;;;;;;;;4989117;28;20557;-82
2022/04/10 12:13:31;;;;;;;8.30;1.30;;;;;;;;;;4988575;28;20029;-82
2022/04/10 12:16:00;;;;;;;5.13;0.93;;;;;;;;;;4987625;28;20033;-82
2022/04/10 12:18:28;;;;;;;4.78;0.80;;;;;;;;;;4988560;28;20023;-82
2022/04/10 12:21:01;;;;;;;5.10;1.77;;;;;;;;;;4981576;28;20474;-81
2022/04/10 12:23:26;;;;;;;4.18;1.02;;;;;;;;;;4983341;28;20027;-82
2022/04/10 12:25:53;;;;;;;4.90;0.85;;;;;;;;;;4981484;28;20146;-81
2022/04/10 12:28:19;;;;;;;4.38;1.40;;;;;;;;;;4985425;28;20030;-80
2022/04/10 12:30:45;;;;;;;4.03;1.30;;;;;;;;;;4984297;28;20022;-79
2022/04/10 12:33:11;;;;;;;7.68;1.58;;;;;;;;;;4982329;28;20023;-81
2022/04/10 12:35:43;;;;;;;4.30;1.00;;;;;;;;;;4982028;28;20029;-80
2022/04/10 12:38:10;;;;;;;4.55;1.30;;;;;;;;;;4979891;28;20055;-79
2022/04/10 12:40:39;;;;;;;3.70;1.00;;;;;;;;;;4980761;28;20087;-78
2022/04/10 12:43:07;;;;;;;;;;;;;;;;;;4980741;28;20030;-80
2022/04/10 12:45:36;;;;;;;3.20;1.10;;;;;;;;;;4982994;28;19934;-80
2022/04/10 12:48:01;;;;;;;4.60;1.17;;;;;;;;;;4982077;28;20025;-80
2022/04/10 12:50:28;;;;;;;4.20;1.00;;;;;;;;;;4983252;28;20042;-81
2022/04/10 12:52:55;;;;;;;2.75;0.90;;;;;;;;;;4981941;28;20470;-80
2022/04/10 12:55:20;;;;;;;2.10;0.73;;;;;;;;;;4980191;28;20011;-80
2022/04/10 12:57:58;;;;;;;3.63;0.98;;;;;;;;;;4980891;28;20026;-80
2022/04/10 13:00:31;;;;;;;2.47;0.95;;;;;;;;;;4980281;28;20470;-81
2022/04/10 13:02:57;;;;;;;3.30;0.90;;;;;;;;;;4977719;28;20643;-81
2022/04/10 13:05:24;;;;;;;5.50;1.00;;;;;;;;;;4979719;28;20022;-80
2022/04/10 13:08:10;;;;;;;3.67;0.98;;;;;;;;;;4979635;28;20086;-79
2022/04/10 13:10:49;;;;;;;2.58;0.82;;;;;;;;;;4978371;28;20026;-81
2022/04/10 13:13:15;;;;;;;3.70;1.10;;;;;;;;;;4976451;28;20095;-80
2022/04/10 13:15:40;;;;;;;2.92;0.90;;;;;;;;;;4977291;28;20050;-80
2022/04/10 13:18:09;;;;;;;4.15;1.08;;;;;;;;;;4976594;28;20022;-81
2022/04/10 13:20:36;;;;;;;2.42;0.75;;;;;;;;;;4976840;28;20034;-80
2022/04/10 13:23:01;;;;;;;4.47;1.30;;;;;;;;;;4977764;28;20019;-80
2022/04/10 13:25:36;;;;;;;4.18;1.17;;;;;;;;;;4978233;28;20109;-83
2022/04/10 13:28:08;;;;;;;7.07;1.02;;;;;;;;;;4978572;28;20033;-81
2022/04/10 13:30:33;;;;;;;2.85;1.00;;;;;;;;;;4975995;28;20019;-80
2022/04/10 13:33:00;;;;;;;5.68;1.67;;;;;;;;;;4976945;28;20106;-80
2022/04/10 13:35:25;;;;;;;5.20;1.48;;;;;;;;;;4981391;28;20019;-79
2022/04/10 13:37:50;;;;;;;4.43;1.20;;;;;;;;;;4981957;28;20049;-81
2022/04/10 13:40:16;;;;;;;4.38;1.25;;;;;;;;;;4979656;28;20081;-79
2022/04/10 13:42:43;;;;;;;1.88;0.80;;;;;;;;;;4980260;28;20027;-81
2022/04/10 13:45:09;;;;;;;5.55;1.40;;;;;;;;;;4980469;28;20040;-80
2022/04/10 13:47:34;;;;;;;7.35;2.00;;;;;;;;;;4980210;28;20015;-81
2022/04/10 13:50:02;;;;;;;5.97;1.30;;;;;;;;;;4979756;28;20046;-80
2022/04/10 13:52:28;;;;;;;6.03;1.23;;;;;;;;;;4981322;28;20102;-81
2022/04/10 13:54:53;;;;;;;3.90;1.60;;;;;;;;;;4979322;28;20057;-80
2022/04/10 13:57:19;;;;;;;2.75;1.27;;;;;;;;;;4978606;28;20027;-80
2022/04/10 13:59:44;;;;;;;2.42;0.98;;;;;;;;;;4979713;28;20014;-80
2022/04/10 14:02:33;;;;;;;;;;;;;;;;;;;;;
2022/04/10 14:04:58;;;;;;;3.63;1.08;;;;;;;;;;4981000;28;20105;-82
2022/04/10 14:07:24;;;;;;;6.75;1.10;;;;;;;;;;4980065;28;20050;-81
2022/04/10 14:09:49;;;;;;;4.90;1.40;;;;;;;;;;4978433;28;20018;-80
2022/04/10 14:12:15;;;;;;;5.20;1.20;;;;;;;;;;4979311;28;20433;-80
2022/04/10 14:14:40;;;;;;;4.28;1.58;;;;;;;;;;4977959;28;20091;-80
2022/04/10 14:17:06;;;;;;;2.45;1.10;;;;;;;;;;4978789;28;20159;-79
2022/04/10 14:19:34;;;;;;;3.97;1.00;;;;;;;;;;4978336;28;20037;-80
2022/04/10 14:21:59;;;;;;;2.45;1.30;;;;;;;;;;4977847;28;20150;-81
2022/04/10 14:24:25;;;;;;;4.90;1.33;;;;;;;;;;4976989;28;20066;-80
2022/04/10 14:26:50;;;;;;;3.78;1.20;;;;;;;;;;4977758;28;20019;-80
2022/04/10 14:29:19;;;;;;;3.85;1.45;;;;;;;;;;4977800;28;20022;-80
2022/04/10 14:31:47;;;;;;;4.82;1.85;;;;;;;;;;4977959;28;20110;-81
2022/04/10 14:34:14;;;;;;;7.53;2.92;;;;;;;;;;4977219;28;20072;-80
2022/04/10 14:36:39;;;;;;;4.30;1.38;;;;;;;;;;4978156;28;20022;-80
2022/04/10 14:39:05;;;;;;;8.60;1.63;;;;;;;;;;4979902;28;20015;-81
2022/04/10 14:41:30;;;;;;;6.22;1.35;;;;;;;;;;4978268;28;20123;-80
2022/04/10 14:43:56;;;;;;;3.25;1.52;;;;;;;;;;4980214;28;20019;-80
2022/04/10 14:46:21;;;;;;;5.88;1.67;;;;;;;;;;4978996;28;20027;-80
2022/04/10 14:48:47;;;;;;;5.10;1.67;;;;;;;;;;4978952;28;20022;-81
2022/04/10 14:51:12;;;;;;;6.57;1.40;;;;;;;;;;4977490;28;20556;-81
2022/04/10 14:53:40;;;;;;;7.78;2.17;;;;;;;;;;4978690;28;20023;-81
2022/04/10 14:56:06;;;;;;;1.45;0.80;;;;;;;;;;4978182;28;20622;-81
2022/04/10 14:58:31;;;;;;;7.35;1.10;;;;;;;;;;4978673;28;20027;-81
2022/04/10 15:00:57;;;;;;;3.78;1.08;;;;;;;;;;4976607;28;20022;-81
2022/04/10 15:03:23;;;;;;;3.30;1.20;;;;;;;;;;4977906;28;20097;-81
2022/04/10 15:05:48;;;;;;;3.47;1.00;;;;;;;;;;4976792;28;20061;-81
2022/04/10 15:08:18;;;;;;;5.40;1.30;;;;;;;;;;4978269;28;20019;-82
2022/04/10 15:10:45;;;;;;;4.07;1.50;;;;;;;;;;4984885;28;20054;-81
2022/04/10 15:13:11;;;;;;;2.55;0.85;;;;;;;;;;4978412;28;20030;-81
2022/04/10 15:15:36;;;;;;;2.33;0.80;;;;;;;;;;4977374;28;20026;-81
2022/04/10 15:18:01;;;;;;;3.92;1.25;;;;;;;;;;4978228;28;20106;-81
2022/04/10 15:20:27;;;;;;;2.50;0.98;;;;;;;;;;4978373;28;20082;-80
2022/04/10 15:22:52;;;;;;;3.65;1.02;;;;;;;;;;4977591;28;20015;-79
2022/04/10 15:25:17;;;;;;;5.03;1.20;;;;;;;;;;4977213;28;20465;-81
2022/04/10 15:27:43;;;;;;;3.28;1.10;;;;;;;;;;4976495;28;20015;-81
2022/04/10 15:30:10;;;;;;;4.68;1.33;;;;;;;;;;4977960;28;20105;-81
2022/04/10 15:32:35;;;;;;;3.10;1.10;;;;;;;;;;4976681;28;20026;-81
2022/04/10 15:35:02;;;;;;;6.45;1.38;;;;;;;;;;4976196;28;20120;-81
2022/04/10 15:37:27;;;;;;;0.82;0.60;;;;;;;;;;4977299;28;20026;-81
2022/04/10 15:39:53;;;;;;;1.75;0.57;;;;;;;;;;4976521;28;20357;-81
2022/04/10 15:42:18;;;;;;;0.98;0.47;;;;;;;;;;4977970;28;20377;-81
2022/04/10 15:44:44;;;;;;;1.80;0.60;;;;;;;;;;4976528;28;20031;-80
2022/04/10 15:47:09;;;;;;;3.90;0.90;;;;;;;;;;4977648;28;20029;-80
2022/04/10 15:49:35;;;;;;;1.48;0.50;;;;;;;;;;4977576;28;20385;-80
2022/04/10 15:52:01;;;;;;;4.78;0.90;;;;;;;;;;4976208;28;20252;-81
2022/04/10 15:54:26;;;;;;;3.05;0.80;;;;;;;;;;4975878;28;20398;-80
2022/04/10 15:56:51;;;;;;;4.35;1.10;;;;;;;;;;4977828;28;20085;-81
2022/04/10 15:59:17;;;;;;;1.70;0.80;;;;;;;;;;4979983;28;20031;-79
2022/04/10 16:01:42;;;;;;;3.97;1.15;;;;;;;;;;4980637;28;20023;-81
2022/04/10 16:04:07;;;;;;;4.22;1.10;;;;;;;;;;4979765;28;20023;-80
2022/04/10 16:06:34;;;;;;;4.90;1.00;;;;;;;;;;4979455;28;20199;-80
2022/04/10 16:08:59;;;;;;;7.10;1.20;;;;;;;;;;4978691;28;20029;-81
2022/04/10 16:11:25;;;;;;;4.47;1.40;;;;;;;;;;4978319;28;20383;-82
2022/04/10 16:13:50;;;;;;;4.70;1.00;;;;;;;;;;4978886;28;20077;-81
2022/04/10 16:16:15;;;;;;;2.65;0.88;;;;;;;;;;4977614;28;20022;-79
2022/04/10 16:18:41;;;;;;;7.57;1.40;;;;;;;;;;4978447;28;20027;-80
2022/04/10 16:21:06;;;;;;;5.93;1.65;;;;;;;;;;4978285;28;20019;-81
2022/04/10 16:23:32;;;;;;;4.85;1.20;;;;;;;;;;4976473;28;20011;-81
2022/04/10 16:26:00;;;;;;;3.85;1.13;;;;;;;;;;4978326;28;20023;-81
2022/04/10 16:31:09;;;;;;;5.30;1.60;;;;;;;;;;4978377;28;20037;-80
2022/04/10 16:34:16;;;;;;;2.72;1.05;;;;;;;;;;4975759;28;20026;-80
2022/04/10 16:36:20;;;;;;;3.92;1.20;;;;;;;;;;4979279;28;20031;-80
2022/04/10 16:38:46;;;;;;;3.30;1.08;;;;;;;;;;4980212;28;20037;-81
2022/04/10 16:41:11;;;;;;;3.28;0.82;;;;;;;;;;4979378;28;20113;-81
2022/04/10 16:43:36;;;;;;;5.78;1.40;;;;;;;;;;4977937;28;20030;-80
2022/04/10 16:46:01;;;;;;;4.43;1.13;;;;;;;;;;4984216;23;20051;-81
2022/04/10 16:48:27;;;;;;;4.10;1.08;;;;;;;;;;4973606;28;20069;-79
2022/04/10 16:50:52;;;;;;;2.63;0.90;;;;;;;;;;4974283;28;20454;-82
2022/04/10 16:53:17;;;;;;;4.50;1.05;;;;;;;;;;4974146;28;20386;-81
2022/04/10 16:55:42;;;;;;;3.33;1.00;;;;;;;;;;4975919;28;20363;-82
2022/04/10 16:58:08;;;;;;;3.00;1.23;;;;;;;;;;4974172;28;20066;-82
2022/04/10 17:00:36;;;;;;;6.60;1.42;;;;;;;;;;4973117;28;20058;-82
2022/04/10 17:03:02;;;;;;;3.45;0.88;;;;;;;;;;4974365;28;20341;-83
2022/04/10 17:05:27;;;;;;;6.05;1.60;;;;;;;;;;4971845;28;20466;-80
2022/04/10 17:07:52;;;;;;;4.00;0.70;;;;;;;;;;4975887;28;20367;-83
2022/04/10 17:10:17;;;;;;;3.22;1.48;;;;;;;;;;4976456;28;20019;-81
2022/04/10 17:12:43;;;;;;;12.13;5.13;;;;;;;;;;4977182;28;20018;-82
2022/04/10 17:15:09;;;;;;;4.72;1.17;;;;;;;;;;4977245;28;20022;-82
2022/04/10 17:17:37;;;;;;;7.15;2.08;;;;;;;;;;4976868;28;20102;-80
2022/04/10 17:20:04;;;;;;;4.82;1.52;;;;;;;;;;4977324;28;20030;-82
2022/04/10 17:22:29;;;;;;;4.88;1.25;;;;;;;;;;4977025;28;20074;-83
2022/04/10 17:24:57;;;;;;;5.75;1.30;;;;;;;;;;4977029;28;20516;-81
2022/04/10 17:27:23;;;;;;;2.25;0.93;;;;;;;;;;4977206;28;20474;-81
2022/04/10 17:29:48;;;;;;;3.13;0.95;;;;;;;;;;4977644;28;20026;-81
2022/04/10 17:32:13;;;;;;;3.95;1.30;;;;;;;;;;4975818;28;20474;-80
2022/04/10 17:34:42;;;;;;;5.75;1.60;;;;;;;;;;4976909;28;20053;-82
2022/04/10 17:37:07;;;;;;;3.35;1.17;;;;;;;;;;4976961;28;20033;-81
2022/04/10 17:39:33;;;;;;;3.70;1.48;;;;;;;;;;4975651;28;20026;-82
2022/04/10 17:41:58;;;;;;;8.57;1.85;;;;;;;;;;4976827;28;20019;-80
2022/04/10 17:44:23;;;;;;;6.13;1.52;;;;;;;;;;4975947;28;20026;-82
2022/04/10 17:46:49;;;;;;;3.47;1.40;;;;;;;;;;4976125;28;20019;-80
2022/04/10 17:49:14;;;;;;;6.47;1.50;;;;;;;;;;4976342;28;20033;-83
2022/04/10 17:51:40;;;;;;;4.45;1.40;;;;;;;;;;4976110;28;20466;-82
2022/04/10 17:54:06;;;;;;;3.78;1.65;;;;;;;;;;4976280;28;20026;-81
2022/04/10 17:56:31;;;;;;;4.35;1.55;;;;;;;;;;4976095;28;20506;-80
2022/04/10 17:58:56;;;;;;;4.63;1.52;;;;;;;;;;4976096;28;20068;-82
2022/04/10 18:01:22;;;;;;;6.45;2.10;;;;;;;;;;4974120;28;20504;-82
2022/04/10 18:03:47;;;;;;;3.63;1.45;;;;;;;;;;4975643;28;20030;-82
2022/04/10 18:06:12;;;;;;;5.20;1.65;;;;;;;;;;4974646;28;20463;-81
2022/04/10 18:08:38;;;;;;;4.82;1.65;;;;;;;;;;4975871;28;20019;-82
2022/04/10 18:11:04;;;;;;;5.22;1.98;;;;;;;;;;4975538;28;20521;-82
2022/04/10 18:13:29;;;;;;;7.50;1.65;;;;;;;;;;4975547;28;20038;-81
2022/04/10 18:15:55;;;;;;;4.63;1.58;;;;;;;;;;4975482;28;20030;-81
2022/04/10 18:18:23;;;;;;;5.13;1.60;;;;;;;;;;4974784;28;20106;-84
2022/04/10 18:20:49;;;;;;;4.13;1.48;;;;;;;;;;4975577;28;20031;-82
2022/04/10 18:23:16;;;;;;;4.60;1.25;;;;;;;;;;4974147;28;20033;-83
2022/04/10 18:25:44;;;;;;;7.53;1.45;;;;;;;;;;4974399;28;20015;-83
2022/04/10 18:28:09;;;;;;;3.50;1.23;;;;;;;;;;4975841;28;20485;-82
2022/04/10 18:30:35;;;;;;;6.55;1.50;;;;;;;;;;4975690;28;20031;-81
2022/04/10 18:33:02;;;;;;;6.50;1.20;;;;;;;;;;4975655;28;20023;-82
2022/04/10 18:35:27;;;;;;;4.93;1.40;;;;;;;;;;4975614;28;20018;-82
2022/04/10 18:37:53;;;;;;;7.40;1.50;;;;;;;;;;4975613;28;20085;-82
2022/04/10 18:40:19;;;;;;;4.70;1.42;;;;;;;;;;4975621;28;20110;-81
2022/04/10 18:42:47;;;;;;;7.40;1.38;;;;;;;;;;4975246;28;20106;-85
2022/04/10 18:45:13;;;;;;;6.03;1.55;;;;;;;;;;4973864;28;20041;-82
2022/04/10 18:47:39;;;;;;;4.88;1.30;;;;;;;;;;4975459;28;20098;-82
2022/04/10 18:50:11;;;;;;;6.38;1.42;;;;;;;;;;4974043;28;20053;-82
2022/04/10 18:52:39;;;;;;;2.72;1.08;;;;;;;;;;4974092;28;20042;-81
2022/04/10 18:55:06;;;;;;;6.10;1.30;;;;;;;;;;4975324;28;20023;-83
2022/04/10 18:57:31;;;;;;;4.07;1.13;;;;;;;;;;4975377;28;20034;-81
2022/04/10 18:59:57;;;;;;;6.32;1.58;;;;;;;;;;4974052;28;20023;-81
2022/04/10 19:02:22;;;;;;;6.68;1.48;;;;;;;;;;4975977;28;20046;-81
2022/04/10 19:04:48;;;;;;;7.35;2.72;;;;;;;;;;4976440;28;20015;-81
2022/04/10 19:07:14;;;;;;;3.72;1.23;;;;;;;;;;4977298;28;20030;-80
2022/04/10 19:09:39;;;;;;;4.93;1.23;;;;;;;;;;4976881;28;20093;-81
2022/04/10 19:12:04;;;;;;;4.50;1.20;;;;;;;;;;4978842;28;20101;-81
2022/04/10 19:14:29;;;;;;;3.60;1.20;;;;;;;;;;4980125;28;20106;-82
2022/04/10 19:16:55;;;;;;;6.47;1.20;;;;;;;;;;4977357;28;20023;-81
2022/04/10 19:19:20;;;;;;;5.28;1.50;;;;;;;;;;4974872;28;20023;-82
2022/04/10 19:21:46;;;;;;;4.68;1.33;;;;;;;;;;4977168;28;20030;-81
2022/04/10 19:24:11;;;;;;;6.07;1.33;;;;;;;;;;4976352;28;20011;-81